createdAt,value
2022-12-15T00:04:04.205Z,11.89
2022-12-15T00:09:27.837Z,11.89
2022-12-15T00:14:42.675Z,11.89
2022-12-15T00:20:02.531Z,11.89
2022-12-15T00:25:22.020Z,11.89
2022-12-15T00:30:41.893Z,11.88
2022-12-15T00:36:01.561Z,11.88
2022-12-15T00:41:21.208Z,11.89
2022-12-15T00:46:41.601Z,11.88
2022-12-15T00:52:00.252Z,11.88
2022-12-15T01:02:38.896Z,11.88
2022-12-15T01:07:58.209Z,11.88
2022-12-15T01:13:18.517Z,11.88
2022-12-15T01:18:38.111Z,11.88
2022-12-15T01:23:56.322Z,11.88
2022-12-15T01:29:15.865Z,11.87
2022-12-15T01:34:34.721Z,11.88
2022-12-15T01:45:13.497Z,11.87
2022-12-15T01:50:32.567Z,11.87
2022-12-15T01:55:52.325Z,11.87
2022-12-15T02:01:12.105Z,11.86
2022-12-15T02:06:31.154Z,11.87
2022-12-15T02:11:50.473Z,11.87
2022-12-15T02:17:09.893Z,11.87
2022-12-15T02:27:49.143Z,11.87
2022-12-15T02:33:08.684Z,11.86
2022-12-15T02:38:27.867Z,11.86
2022-12-15T02:43:46.943Z,11.86
2022-12-15T02:49:06.469Z,11.87
2022-12-15T02:54:26.182Z,11.86
2022-12-15T02:59:45.291Z,11.86
2022-12-15T03:10:24.533Z,11.86
2022-12-15T03:15:43.826Z,11.86
2022-12-15T03:21:03.600Z,11.86
2022-12-15T03:26:23.406Z,11.86
2022-12-15T03:31:42.595Z,11.86
2022-12-15T03:37:01.835Z,11.86
2022-12-15T03:42:21.414Z,11.85
2022-12-15T03:47:41.160Z,11.85
2022-12-15T03:53:00.388Z,11.85
2022-12-15T04:03:39.379Z,11.85
2022-12-15T04:08:58.538Z,11.85
2022-12-15T04:14:18.421Z,11.85
2022-12-15T04:19:38.087Z,11.85
2022-12-15T04:24:57.031Z,11.85
2022-12-15T04:30:16.415Z,11.84
2022-12-15T04:35:35.470Z,11.84
2022-12-15T04:40:54.471Z,11.84
2022-12-15T04:46:13.467Z,11.84
2022-12-15T04:51:33.090Z,11.84
2022-12-15T04:56:52.864Z,11.84
2022-12-15T05:02:11.992Z,11.84
2022-12-15T05:07:31.463Z,11.84
2022-12-15T05:12:50.382Z,11.84
2022-12-15T05:18:09.856Z,11.83
2022-12-15T05:28:48.723Z,11.84
2022-12-15T05:35:22.888Z,11.84
2022-12-15T05:39:28.537Z,11.84
2022-12-15T05:44:48.257Z,11.84
2022-12-15T05:50:07.632Z,11.84
2022-12-15T05:55:25.504Z,11.83
2022-12-15T06:00:45.185Z,11.83
2022-12-15T06:11:23.932Z,11.83
2022-12-15T06:16:49.783Z,11.83
2022-12-15T06:22:01.682Z,11.83
2022-12-15T06:27:20.831Z,11.83
2022-12-15T06:32:39.397Z,11.83
2022-12-15T06:37:58.726Z,11.83
2022-12-15T06:43:17.830Z,11.82
2022-12-15T06:53:56.648Z,11.82
2022-12-15T07:15:40.758Z,11.82
2022-12-15T08:03:34.865Z,11.82
2022-12-15T08:08:54.108Z,11.82
2022-12-15T08:14:17.191Z,11.83
2022-12-15T08:30:11.259Z,11.84
2022-12-15T09:12:46.127Z,11.95
2022-12-15T09:28:44.629Z,12.28
2022-12-15T11:15:09.062Z,12.85
2022-12-15T11:36:27.450Z,12.59
2022-12-15T12:40:18.002Z,12.52
2022-12-15T12:50:56.303Z,12.5
2022-12-15T12:56:15.293Z,12.5
2022-12-15T13:06:53.688Z,12.5
2022-12-15T13:28:10.544Z,12.51
2022-12-15T13:33:30.580Z,12.52
2022-12-15T13:44:09.240Z,12.52
2022-12-15T13:49:28.119Z,12.5
2022-12-15T13:54:48.213Z,12.49
2022-12-15T14:00:07.658Z,12.49
2022-12-15T14:05:26.303Z,12.51
2022-12-15T14:10:45.142Z,12.52
2022-12-15T14:16:04.537Z,12.52
2022-12-15T14:26:42.818Z,12.44
2022-12-15T14:32:02.415Z,12.41
2022-12-15T14:37:21.877Z,12.38
2022-12-15T14:42:41.475Z,12.36
2022-12-15T14:48:30.836Z,12.34
2022-12-15T14:53:19.926Z,12.33
2022-12-15T14:58:40.163Z,12.31
2022-12-15T15:03:59.242Z,12.29
2022-12-15T15:09:18.986Z,12.27
2022-12-15T15:14:38.669Z,12.27
2022-12-15T15:19:57.617Z,12.25
2022-12-15T15:25:16.911Z,12.24
2022-12-15T15:30:36.387Z,12.24
2022-12-15T15:35:56.063Z,12.24
2022-12-15T15:41:15.109Z,12.23
2022-12-15T15:46:34.879Z,12.23
2022-12-15T15:51:54.350Z,12.22
2022-12-15T15:57:14.079Z,12.22
2022-12-15T16:02:33.850Z,12.21
2022-12-15T16:07:53.431Z,12.2
2022-12-15T16:13:13.076Z,12.21
2022-12-15T16:19:47.299Z,12.2
2022-12-15T16:24:02.664Z,12.2
2022-12-15T16:29:11.306Z,12.2
2022-12-15T16:34:30.559Z,12.19
2022-12-15T16:39:49.405Z,12.2
2022-12-15T16:50:27.471Z,12.19
2022-12-15T16:55:46.365Z,12.18
2022-12-15T17:01:05.311Z,12.18
2022-12-15T17:06:24.173Z,12.18
2022-12-15T17:11:43.519Z,12.18
2022-12-15T17:17:02.391Z,12.17
2022-12-15T17:27:40.415Z,12.17
2022-12-15T17:33:00.178Z,12.17
2022-12-15T17:38:19.133Z,12.17
2022-12-15T17:43:38.342Z,12.16
2022-12-15T17:48:57.436Z,12.16
2022-12-15T17:54:16.334Z,12.16
2022-12-15T17:59:35.711Z,12.16
2022-12-15T18:10:13.694Z,12.16
2022-12-15T18:15:32.767Z,12.15
2022-12-15T18:20:52.319Z,12.15
2022-12-15T18:26:11.326Z,12.15
2022-12-15T18:31:30.399Z,12.15
2022-12-15T18:36:49.525Z,12.15
2022-12-15T18:42:09.821Z,12.15
2022-12-15T18:52:48.185Z,12.14
2022-12-15T18:58:10.346Z,12.14
2022-12-15T19:03:26.751Z,12.14
2022-12-15T19:10:00.935Z,12.14
2022-12-15T19:19:26.831Z,12.14
2022-12-15T19:24:45.867Z,12.13
2022-12-15T19:35:24.047Z,12.13
2022-12-15T19:40:43.770Z,12.13
2022-12-15T19:46:02.712Z,12.13
2022-12-15T19:51:22.480Z,12.13
2022-12-15T19:56:42.378Z,12.12
2022-12-15T20:02:01.372Z,12.12
2022-12-15T20:07:20.691Z,12.12
2022-12-15T20:17:59.381Z,12.12
2022-12-15T20:23:18.935Z,12.12
2022-12-15T20:28:37.852Z,12.12
2022-12-15T20:33:56.831Z,12.12
2022-12-15T20:39:16.047Z,12.12
2022-12-15T20:44:35.385Z,12.11
2022-12-15T20:49:54.916Z,12.11
2022-12-15T21:00:33.548Z,12.12
2022-12-15T21:05:52.702Z,12.12
2022-12-15T21:11:11.732Z,12.11
2022-12-15T21:16:31.243Z,12.11
2022-12-15T21:21:51.679Z,12.11
2022-12-15T21:30:56.335Z,12.1
2022-12-15T21:32:29.673Z,12.11
2022-12-15T21:37:48.924Z,12.1
2022-12-15T21:46:26.334Z,12.1
2022-12-15T21:50:37.360Z,12.1
2022-12-15T21:53:44.793Z,12.1
2022-12-15T21:59:04.593Z,12.1
2022-12-15T22:09:43.164Z,12.1
2022-12-15T22:20:23.289Z,12.1
2022-12-15T22:25:42.988Z,12.1
2022-12-15T22:31:01.869Z,12.1
2022-12-15T22:36:20.224Z,12.1
2022-12-15T22:41:39.627Z,12.09
2022-12-15T22:46:58.813Z,12.1
2022-12-15T22:53:32.932Z,12.09
2022-12-15T23:08:17.578Z,12.1
2022-12-15T23:13:36.785Z,12.1
2022-12-15T23:18:55.684Z,12.09
2022-12-15T23:24:13.423Z,12.09
2022-12-15T23:29:32.186Z,12.09
2022-12-15T23:34:51.601Z,12.08
2022-12-15T23:45:31.435Z,12.08
2022-12-15T23:50:51.047Z,12.1
2022-12-15T23:56:09.756Z,12.09
